sensor_id;sensor_type;location;lat;lon;timestamp;temperature;humidity
53294;DHT22;39181;53.440;5.644;2023-01-28T00:00:32;2.90;99.90
53294;DHT22;39181;53.440;5.644;2023-01-28T00:02:57;2.90;99.90
53294;DHT22;39181;53.440;5.644;2023-01-28T00:05:23;2.90;99.90
53294;DHT22;39181;53.440;5.644;2023-01-28T00:07:49;2.90;99.90
53294;DHT22;39181;53.440;5.644;2023-01-28T00:10:15;2.90;99.90
53294;DHT22;39181;53.440;5.644;2023-01-28T00:12:41;2.90;99.90
53294;DHT22;39181;53.440;5.644;2023-01-28T00:15:07;2.90;99.90
53294;DHT22;39181;53.440;5.644;2023-01-28T00:17:33;2.90;99.90
53294;DHT22;39181;53.440;5.644;2023-01-28T00:19:58;2.90;99.90
53294;DHT22;39181;53.440;5.644;2023-01-28T00:22:24;2.90;99.90
53294;DHT22;39181;53.440;5.644;2023-01-28T00:24:49;2.90;99.90
53294;DHT22;39181;53.440;5.644;2023-01-28T00:27:15;2.90;99.90
53294;DHT22;39181;53.440;5.644;2023-01-28T00:29:40;2.90;99.90
53294;DHT22;39181;53.440;5.644;2023-01-28T00:32:06;2.90;99.90
53294;DHT22;39181;53.440;5.644;2023-01-28T00:34:32;2.90;99.90
53294;DHT22;39181;53.440;5.644;2023-01-28T00:36:57;2.90;99.90
53294;DHT22;39181;53.440;5.644;2023-01-28T00:39:24;2.90;99.90
53294;DHT22;39181;53.440;5.644;2023-01-28T00:41:51;2.90;99.90
53294;DHT22;39181;53.440;5.644;2023-01-28T00:44:18;2.90;99.90
53294;DHT22;39181;53.440;5.644;2023-01-28T00:46:44;2.90;99.90
53294;DHT22;39181;53.440;5.644;2023-01-28T00:49:09;2.90;99.90
53294;DHT22;39181;53.440;5.644;2023-01-28T00:51:35;2.90;99.90
53294;DHT22;39181;53.440;5.644;2023-01-28T00:54:01;2.90;99.90
53294;DHT22;39181;53.440;5.644;2023-01-28T00:56:26;2.90;99.90
53294;DHT22;39181;53.440;5.644;2023-01-28T00:58:52;2.90;99.90
53294;DHT22;39181;53.440;5.644;2023-01-28T01:01:25;2.80;99.90
53294;DHT22;39181;53.440;5.644;2023-01-28T01:03:51;2.90;99.90
53294;DHT22;39181;53.440;5.644;2023-01-28T01:06:32;2.90;99.90
53294;DHT22;39181;53.440;5.644;2023-01-28T01:08:57;2.80;99.90
53294;DHT22;39181;53.440;5.644;2023-01-28T01:11:23;2.80;99.90
53294;DHT22;39181;53.440;5.644;2023-01-28T01:13:53;2.80;99.90
53294;DHT22;39181;53.440;5.644;2023-01-28T01:16:24;2.90;99.90
53294;DHT22;39181;53.440;5.644;2023-01-28T01:18:51;2.80;99.90
53294;DHT22;39181;53.440;5.644;2023-01-28T01:21:20;2.80;99.90
53294;DHT22;39181;53.440;5.644;2023-01-28T01:23:46;2.80;99.90
53294;DHT22;39181;53.440;5.644;2023-01-28T01:26:12;2.80;99.90
53294;DHT22;39181;53.440;5.644;2023-01-28T01:28:38;2.80;99.90
53294;DHT22;39181;53.440;5.644;2023-01-28T01:31:07;2.80;99.90
53294;DHT22;39181;53.440;5.644;2023-01-28T01:33:33;2.80;99.90
53294;DHT22;39181;53.440;5.644;2023-01-28T01:35:59;2.80;99.90
53294;DHT22;39181;53.440;5.644;2023-01-28T01:38:25;2.80;99.90
53294;DHT22;39181;53.440;5.644;2023-01-28T01:40:51;2.80;99.90
53294;DHT22;39181;53.440;5.644;2023-01-28T01:43:19;2.80;99.90
53294;DHT22;39181;53.440;5.644;2023-01-28T01:45:49;2.80;99.90
53294;DHT22;39181;53.440;5.644;2023-01-28T01:48:27;2.80;99.90
53294;DHT22;39181;53.440;5.644;2023-01-28T01:51:02;2.80;99.90
53294;DHT22;39181;53.440;5.644;2023-01-28T01:53:30;2.80;99.90
53294;DHT22;39181;53.440;5.644;2023-01-28T01:56:01;2.80;99.90
53294;DHT22;39181;53.440;5.644;2023-01-28T01:58:32;2.80;99.90
53294;DHT22;39181;53.440;5.644;2023-01-28T02:01:00;2.80;99.90
53294;DHT22;39181;53.440;5.644;2023-01-28T02:04:03;2.70;99.90
53294;DHT22;39181;53.440;5.644;2023-01-28T02:06:30;2.80;99.90
53294;DHT22;39181;53.440;5.644;2023-01-28T02:08:56;2.70;99.90
53294;DHT22;39181;53.440;5.644;2023-01-28T02:11:25;2.70;99.90
53294;DHT22;39181;53.440;5.644;2023-01-28T02:13:53;2.80;99.90
53294;DHT22;39181;53.440;5.644;2023-01-28T02:16:20;2.80;99.90
53294;DHT22;39181;53.440;5.644;2023-01-28T02:18:46;2.80;99.90
53294;DHT22;39181;53.440;5.644;2023-01-28T02:21:45;2.80;99.90
53294;DHT22;39181;53.440;5.644;2023-01-28T02:24:23;2.80;99.90
53294;DHT22;39181;53.440;5.644;2023-01-28T02:32:21;2.70;99.90
53294;DHT22;39181;53.440;5.644;2023-01-28T02:35:10;2.70;99.90
53294;DHT22;39181;53.440;5.644;2023-01-28T02:37:50;2.80;99.90
53294;DHT22;39181;53.440;5.644;2023-01-28T02:40:24;2.70;99.90
53294;DHT22;39181;53.440;5.644;2023-01-28T02:42:54;2.70;99.90
53294;DHT22;39181;53.440;5.644;2023-01-28T02:45:30;2.70;99.90
53294;DHT22;39181;53.440;5.644;2023-01-28T02:48:31;2.70;99.90
53294;DHT22;39181;53.440;5.644;2023-01-28T02:51:09;2.70;99.90
53294;DHT22;39181;53.440;5.644;2023-01-28T02:53:50;2.70;99.90
53294;DHT22;39181;53.440;5.644;2023-01-28T02:59:10;2.70;99.90
53294;DHT22;39181;53.440;5.644;2023-01-28T03:05:06;2.70;99.90
53294;DHT22;39181;53.440;5.644;2023-01-28T03:07:35;2.60;99.90
53294;DHT22;39181;53.440;5.644;2023-01-28T03:10:05;2.70;99.90
53294;DHT22;39181;53.440;5.644;2023-01-28T03:12:34;2.70;99.90
53294;DHT22;39181;53.440;5.644;2023-01-28T03:15:24;2.70;99.90
53294;DHT22;39181;53.440;5.644;2023-01-28T03:18:19;2.70;99.90
53294;DHT22;39181;53.440;5.644;2023-01-28T03:21:16;2.70;99.90
53294;DHT22;39181;53.440;5.644;2023-01-28T03:24:10;2.70;99.90
53294;DHT22;39181;53.440;5.644;2023-01-28T03:27:04;2.70;99.90
53294;DHT22;39181;53.440;5.644;2023-01-28T03:29:50;2.70;99.90
53294;DHT22;39181;53.440;5.644;2023-01-28T03:32:38;2.70;99.90
53294;DHT22;39181;53.440;5.644;2023-01-28T03:35:27;2.70;99.90
53294;DHT22;39181;53.440;5.644;2023-01-28T03:38:12;2.70;99.90
53294;DHT22;39181;53.440;5.644;2023-01-28T03:40:50;2.70;99.90
53294;DHT22;39181;53.440;5.644;2023-01-28T03:43:16;2.70;99.90
53294;DHT22;39181;53.440;5.644;2023-01-28T03:45:41;2.70;99.90
53294;DHT22;39181;53.440;5.644;2023-01-28T03:48:07;2.70;99.90
53294;DHT22;39181;53.440;5.644;2023-01-28T03:50:32;2.70;99.90
53294;DHT22;39181;53.440;5.644;2023-01-28T03:52:58;2.70;99.90
53294;DHT22;39181;53.440;5.644;2023-01-28T03:55:36;2.70;99.90
53294;DHT22;39181;53.440;5.644;2023-01-28T03:58:03;2.70;99.90
53294;DHT22;39181;53.440;5.644;2023-01-28T04:00:30;2.70;99.90
53294;DHT22;39181;53.440;5.644;2023-01-28T04:02:57;2.70;99.90
53294;DHT22;39181;53.440;5.644;2023-01-28T04:05:23;2.70;99.90
53294;DHT22;39181;53.440;5.644;2023-01-28T04:07:53;2.70;99.90
53294;DHT22;39181;53.440;5.644;2023-01-28T04:10:19;2.70;99.90
53294;DHT22;39181;53.440;5.644;2023-01-28T04:12:45;2.70;99.90
53294;DHT22;39181;53.440;5.644;2023-01-28T04:15:14;2.70;99.90
53294;DHT22;39181;53.440;5.644;2023-01-28T04:17:49;2.70;99.90
53294;DHT22;39181;53.440;5.644;2023-01-28T04:20:15;2.70;99.90
53294;DHT22;39181;53.440;5.644;2023-01-28T04:22:40;2.70;99.90
53294;DHT22;39181;53.440;5.644;2023-01-28T04:25:06;2.70;99.90
53294;DHT22;39181;53.440;5.644;2023-01-28T04:27:32;2.70;99.90
53294;DHT22;39181;53.440;5.644;2023-01-28T04:29:57;2.70;99.90
53294;DHT22;39181;53.440;5.644;2023-01-28T04:32:23;2.70;99.90
53294;DHT22;39181;53.440;5.644;2023-01-28T04:34:48;2.60;99.90
53294;DHT22;39181;53.440;5.644;2023-01-28T04:37:14;2.60;99.90
53294;DHT22;39181;53.440;5.644;2023-01-28T04:39:39;2.60;99.90
53294;DHT22;39181;53.440;5.644;2023-01-28T04:42:05;2.60;99.90
53294;DHT22;39181;53.440;5.644;2023-01-28T04:44:31;2.50;99.90
53294;DHT22;39181;53.440;5.644;2023-01-28T04:46:56;2.50;99.90
53294;DHT22;39181;53.440;5.644;2023-01-28T04:49:22;2.50;99.90
53294;DHT22;39181;53.440;5.644;2023-01-28T04:51:47;2.50;99.90
53294;DHT22;39181;53.440;5.644;2023-01-28T04:54:13;2.40;99.90
53294;DHT22;39181;53.440;5.644;2023-01-28T04:56:38;2.40;99.90
53294;DHT22;39181;53.440;5.644;2023-01-28T04:59:04;2.40;99.90
53294;DHT22;39181;53.440;5.644;2023-01-28T05:01:29;2.40;99.90
53294;DHT22;39181;53.440;5.644;2023-01-28T05:03:55;2.30;99.90
53294;DHT22;39181;53.440;5.644;2023-01-28T05:06:20;2.20;99.90
53294;DHT22;39181;53.440;5.644;2023-01-28T05:08:46;2.20;99.90
53294;DHT22;39181;53.440;5.644;2023-01-28T05:11:12;2.10;99.90
53294;DHT22;39181;53.440;5.644;2023-01-28T05:13:38;2.10;99.90
53294;DHT22;39181;53.440;5.644;2023-01-28T05:16:04;2.10;99.90
53294;DHT22;39181;53.440;5.644;2023-01-28T05:18:30;2.00;99.90
53294;DHT22;39181;53.440;5.644;2023-01-28T05:20:56;2.00;99.90
53294;DHT22;39181;53.440;5.644;2023-01-28T05:23:21;1.90;99.90
53294;DHT22;39181;53.440;5.644;2023-01-28T05:25:47;1.90;99.90
53294;DHT22;39181;53.440;5.644;2023-01-28T05:28:13;1.80;99.90
53294;DHT22;39181;53.440;5.644;2023-01-28T05:30:39;1.80;99.90
53294;DHT22;39181;53.440;5.644;2023-01-28T05:33:04;1.80;99.90
53294;DHT22;39181;53.440;5.644;2023-01-28T05:35:30;1.70;99.90
53294;DHT22;39181;53.440;5.644;2023-01-28T05:37:56;1.60;99.90
53294;DHT22;39181;53.440;5.644;2023-01-28T05:40:21;1.60;99.90
53294;DHT22;39181;53.440;5.644;2023-01-28T05:42:47;1.50;99.90
53294;DHT22;39181;53.440;5.644;2023-01-28T05:45:12;1.50;99.90
53294;DHT22;39181;53.440;5.644;2023-01-28T05:47:38;1.40;99.90
53294;DHT22;39181;53.440;5.644;2023-01-28T05:50:05;1.40;99.90
53294;DHT22;39181;53.440;5.644;2023-01-28T05:52:31;1.40;99.90
53294;DHT22;39181;53.440;5.644;2023-01-28T05:54:57;1.40;99.90
53294;DHT22;39181;53.440;5.644;2023-01-28T05:57:23;1.30;99.90
53294;DHT22;39181;53.440;5.644;2023-01-28T05:59:48;1.20;99.90
53294;DHT22;39181;53.440;5.644;2023-01-28T06:02:14;1.20;99.90
53294;DHT22;39181;53.440;5.644;2023-01-28T06:04:39;1.20;99.90
53294;DHT22;39181;53.440;5.644;2023-01-28T06:07:05;1.20;99.90
53294;DHT22;39181;53.440;5.644;2023-01-28T06:09:33;1.10;99.90
53294;DHT22;39181;53.440;5.644;2023-01-28T06:11:59;1.10;99.90
53294;DHT22;39181;53.440;5.644;2023-01-28T06:14:25;1.00;99.90
53294;DHT22;39181;53.440;5.644;2023-01-28T06:16:50;1.00;99.90
53294;DHT22;39181;53.440;5.644;2023-01-28T06:19:16;1.00;99.90
53294;DHT22;39181;53.440;5.644;2023-01-28T06:21:42;1.00;99.90
53294;DHT22;39181;53.440;5.644;2023-01-28T06:24:08;1.10;99.90
53294;DHT22;39181;53.440;5.644;2023-01-28T06:26:34;1.10;99.90
53294;DHT22;39181;53.440;5.644;2023-01-28T06:28:59;1.20;99.90
53294;DHT22;39181;53.440;5.644;2023-01-28T06:31:25;1.20;99.90
53294;DHT22;39181;53.440;5.644;2023-01-28T06:33:51;1.30;99.90
53294;DHT22;39181;53.440;5.644;2023-01-28T06:36:16;1.30;99.90
53294;DHT22;39181;53.440;5.644;2023-01-28T06:38:42;1.40;99.90
53294;DHT22;39181;53.440;5.644;2023-01-28T06:41:07;1.40;99.90
53294;DHT22;39181;53.440;5.644;2023-01-28T06:43:33;1.40;99.90
53294;DHT22;39181;53.440;5.644;2023-01-28T06:45:59;1.40;99.90
53294;DHT22;39181;53.440;5.644;2023-01-28T06:48:25;1.30;99.90
53294;DHT22;39181;53.440;5.644;2023-01-28T06:50:51;1.30;99.90
53294;DHT22;39181;53.440;5.644;2023-01-28T06:53:17;1.30;99.90
53294;DHT22;39181;53.440;5.644;2023-01-28T06:55:43;1.30;99.90
53294;DHT22;39181;53.440;5.644;2023-01-28T06:58:09;1.20;99.90
53294;DHT22;39181;53.440;5.644;2023-01-28T07:00:35;1.20;99.90
53294;DHT22;39181;53.440;5.644;2023-01-28T07:03:00;1.20;99.90
53294;DHT22;39181;53.440;5.644;2023-01-28T07:05:26;1.30;99.90
53294;DHT22;39181;53.440;5.644;2023-01-28T07:07:52;1.30;99.90
53294;DHT22;39181;53.440;5.644;2023-01-28T07:10:17;1.30;99.90
53294;DHT22;39181;53.440;5.644;2023-01-28T07:12:43;1.30;99.90
53294;DHT22;39181;53.440;5.644;2023-01-28T07:15:09;1.30;99.90
53294;DHT22;39181;53.440;5.644;2023-01-28T07:17:40;1.30;99.90
53294;DHT22;39181;53.440;5.644;2023-01-28T07:20:07;1.30;99.90
53294;DHT22;39181;53.440;5.644;2023-01-28T07:22:33;1.30;99.90
53294;DHT22;39181;53.440;5.644;2023-01-28T07:24:59;1.30;99.90
53294;DHT22;39181;53.440;5.644;2023-01-28T07:27:26;1.30;99.90
53294;DHT22;39181;53.440;5.644;2023-01-28T07:29:51;1.30;99.90
53294;DHT22;39181;53.440;5.644;2023-01-28T07:32:17;1.30;99.90
53294;DHT22;39181;53.440;5.644;2023-01-28T07:34:42;1.30;99.90
53294;DHT22;39181;53.440;5.644;2023-01-28T07:37:08;1.30;99.90
53294;DHT22;39181;53.440;5.644;2023-01-28T07:39:34;1.30;99.90
53294;DHT22;39181;53.440;5.644;2023-01-28T07:42:00;1.30;99.90
53294;DHT22;39181;53.440;5.644;2023-01-28T07:44:26;1.30;99.90
53294;DHT22;39181;53.440;5.644;2023-01-28T07:46:52;1.30;99.90
53294;DHT22;39181;53.440;5.644;2023-01-28T07:49:18;1.30;99.90
53294;DHT22;39181;53.440;5.644;2023-01-28T07:51:44;1.30;99.90
53294;DHT22;39181;53.440;5.644;2023-01-28T07:54:11;1.30;99.90
53294;DHT22;39181;53.440;5.644;2023-01-28T07:56:37;1.40;99.90
53294;DHT22;39181;53.440;5.644;2023-01-28T07:59:03;1.40;99.90
53294;DHT22;39181;53.440;5.644;2023-01-28T08:01:30;1.50;99.90
53294;DHT22;39181;53.440;5.644;2023-01-28T08:03:57;1.50;99.90
53294;DHT22;39181;53.440;5.644;2023-01-28T08:06:22;1.60;99.90
53294;DHT22;39181;53.440;5.644;2023-01-28T08:08:48;1.70;99.90
53294;DHT22;39181;53.440;5.644;2023-01-28T08:11:13;1.70;99.90
53294;DHT22;39181;53.440;5.644;2023-01-28T08:13:39;1.80;99.90
53294;DHT22;39181;53.440;5.644;2023-01-28T08:16:05;1.90;99.90
53294;DHT22;39181;53.440;5.644;2023-01-28T08:18:31;1.90;99.90
53294;DHT22;39181;53.440;5.644;2023-01-28T08:20:57;2.00;99.90
53294;DHT22;39181;53.440;5.644;2023-01-28T08:23:24;2.10;99.90
53294;DHT22;39181;53.440;5.644;2023-01-28T08:25:51;2.10;99.90
53294;DHT22;39181;53.440;5.644;2023-01-28T08:28:18;2.20;99.90
53294;DHT22;39181;53.440;5.644;2023-01-28T08:30:45;2.20;99.90
53294;DHT22;39181;53.440;5.644;2023-01-28T08:33:13;2.30;99.90
53294;DHT22;39181;53.440;5.644;2023-01-28T08:35:39;2.40;99.90
53294;DHT22;39181;53.440;5.644;2023-01-28T08:38:06;2.40;99.90
53294;DHT22;39181;53.440;5.644;2023-01-28T08:40:32;2.50;99.90
53294;DHT22;39181;53.440;5.644;2023-01-28T08:42:57;2.60;99.90
53294;DHT22;39181;53.440;5.644;2023-01-28T08:45:25;2.60;99.90
53294;DHT22;39181;53.440;5.644;2023-01-28T08:47:53;2.60;99.90
53294;DHT22;39181;53.440;5.644;2023-01-28T08:50:20;2.60;99.90
53294;DHT22;39181;53.440;5.644;2023-01-28T08:52:46;2.60;99.90
53294;DHT22;39181;53.440;5.644;2023-01-28T08:55:14;2.70;99.90
53294;DHT22;39181;53.440;5.644;2023-01-28T08:57:40;2.70;99.90
53294;DHT22;39181;53.440;5.644;2023-01-28T09:00:07;2.80;99.90
53294;DHT22;39181;53.440;5.644;2023-01-28T09:02:35;2.90;99.90
53294;DHT22;39181;53.440;5.644;2023-01-28T09:05:01;3.00;99.90
53294;DHT22;39181;53.440;5.644;2023-01-28T09:07:26;3.10;99.90
53294;DHT22;39181;53.440;5.644;2023-01-28T09:09:52;3.30;99.90
53294;DHT22;39181;53.440;5.644;2023-01-28T09:12:18;3.40;99.90
53294;DHT22;39181;53.440;5.644;2023-01-28T09:14:43;3.50;99.90
53294;DHT22;39181;53.440;5.644;2023-01-28T09:17:09;3.60;99.90
53294;DHT22;39181;53.440;5.644;2023-01-28T09:19:34;3.80;99.90
53294;DHT22;39181;53.440;5.644;2023-01-28T09:22:02;3.90;99.90
53294;DHT22;39181;53.440;5.644;2023-01-28T09:24:28;4.10;99.90
53294;DHT22;39181;53.440;5.644;2023-01-28T09:26:54;4.10;99.90
53294;DHT22;39181;53.440;5.644;2023-01-28T09:29:20;4.10;99.90
53294;DHT22;39181;53.440;5.644;2023-01-28T09:31:45;4.20;99.90
53294;DHT22;39181;53.440;5.644;2023-01-28T09:34:11;4.20;99.90
53294;DHT22;39181;53.440;5.644;2023-01-28T09:36:36;4.20;99.90
53294;DHT22;39181;53.440;5.644;2023-01-28T09:39:02;4.20;99.90
53294;DHT22;39181;53.440;5.644;2023-01-28T09:46:50;4.10;99.90
53294;DHT22;39181;53.440;5.644;2023-01-28T09:49:38;4.10;99.90
53294;DHT22;39181;53.440;5.644;2023-01-28T09:52:12;4.20;99.90
53294;DHT22;39181;53.440;5.644;2023-01-28T09:54:42;4.20;99.90
53294;DHT22;39181;53.440;5.644;2023-01-28T09:57:18;4.20;99.90
53294;DHT22;39181;53.440;5.644;2023-01-28T09:59:45;4.30;99.90
53294;DHT22;39181;53.440;5.644;2023-01-28T10:05:13;4.30;99.90
53294;DHT22;39181;53.440;5.644;2023-01-28T10:10:21;4.40;99.90
53294;DHT22;39181;53.440;5.644;2023-01-28T10:15:44;4.50;99.90
53294;DHT22;39181;53.440;5.644;2023-01-28T10:18:12;4.50;99.90
53294;DHT22;39181;53.440;5.644;2023-01-28T10:20:47;4.50;99.90
53294;DHT22;39181;53.440;5.644;2023-01-28T10:23:45;4.40;99.90
53294;DHT22;39181;53.440;5.644;2023-01-28T10:26:38;4.40;99.90
53294;DHT22;39181;53.440;5.644;2023-01-28T10:31:41;4.50;99.90
53294;DHT22;39181;53.440;5.644;2023-01-28T10:34:10;4.50;99.90
53294;DHT22;39181;53.440;5.644;2023-01-28T10:36:35;4.40;99.90
53294;DHT22;39181;53.440;5.644;2023-01-28T10:39:01;4.40;99.90
53294;DHT22;39181;53.440;5.644;2023-01-28T10:41:27;4.30;99.90
53294;DHT22;39181;53.440;5.644;2023-01-28T10:43:52;4.30;99.90
53294;DHT22;39181;53.440;5.644;2023-01-28T10:46:22;4.20;99.90
53294;DHT22;39181;53.440;5.644;2023-01-28T10:48:55;4.10;99.90
53294;DHT22;39181;53.440;5.644;2023-01-28T10:51:37;4.00;99.90
53294;DHT22;39181;53.440;5.644;2023-01-28T10:54:23;4.10;99.90
53294;DHT22;39181;53.440;5.644;2023-01-28T10:56:54;4.10;99.90
53294;DHT22;39181;53.440;5.644;2023-01-28T10:59:26;4.30;99.90
53294;DHT22;39181;53.440;5.644;2023-01-28T11:04:38;4.60;99.90
53294;DHT22;39181;53.440;5.644;2023-01-28T11:07:13;4.70;99.90
53294;DHT22;39181;53.440;5.644;2023-01-28T11:09:45;4.80;99.90
53294;DHT22;39181;53.440;5.644;2023-01-28T11:12:25;5.00;99.90
53294;DHT22;39181;53.440;5.644;2023-01-28T11:14:59;5.20;99.90
53294;DHT22;39181;53.440;5.644;2023-01-28T11:17:28;5.40;99.90
53294;DHT22;39181;53.440;5.644;2023-01-28T11:19:58;5.50;99.90
53294;DHT22;39181;53.440;5.644;2023-01-28T11:22:36;5.60;99.90
53294;DHT22;39181;53.440;5.644;2023-01-28T11:25:15;5.70;99.90
53294;DHT22;39181;53.440;5.644;2023-01-28T11:27:46;5.70;99.90
53294;DHT22;39181;53.440;5.644;2023-01-28T11:30:36;5.70;99.90
53294;DHT22;39181;53.440;5.644;2023-01-28T11:33:23;5.60;99.90
53294;DHT22;39181;53.440;5.644;2023-01-28T11:35:56;5.70;99.90
53294;DHT22;39181;53.440;5.644;2023-01-28T11:38:23;5.60;99.90
53294;DHT22;39181;53.440;5.644;2023-01-28T11:40:55;5.60;99.90
53294;DHT22;39181;53.440;5.644;2023-01-28T11:43:24;5.60;99.90
53294;DHT22;39181;53.440;5.644;2023-01-28T11:51:35;5.30;99.90
53294;DHT22;39181;53.440;5.644;2023-01-28T11:57:22;5.30;99.90
53294;DHT22;39181;53.440;5.644;2023-01-28T12:02:50;5.60;99.90
53294;DHT22;39181;53.440;5.644;2023-01-28T12:06:14;5.80;99.90
53294;DHT22;39181;53.440;5.644;2023-01-28T12:12:04;5.90;99.90
53294;DHT22;39181;53.440;5.644;2023-01-28T12:17:36;6.10;99.90
53294;DHT22;39181;53.440;5.644;2023-01-28T12:20:15;6.10;99.90
53294;DHT22;39181;53.440;5.644;2023-01-28T12:28:14;6.20;99.90
53294;DHT22;39181;53.440;5.644;2023-01-28T12:31:09;6.30;99.90
53294;DHT22;39181;53.440;5.644;2023-01-28T12:33:47;6.30;99.90
53294;DHT22;39181;53.440;5.644;2023-01-28T12:36:29;6.30;99.90
53294;DHT22;39181;53.440;5.644;2023-01-28T12:41:48;6.30;99.90
53294;DHT22;39181;53.440;5.644;2023-01-28T12:44:25;6.30;99.90
53294;DHT22;39181;53.440;5.644;2023-01-28T12:47:00;6.30;99.90
53294;DHT22;39181;53.440;5.644;2023-01-28T12:49:41;6.30;99.90
53294;DHT22;39181;53.440;5.644;2023-01-28T12:52:34;6.20;99.90
53294;DHT22;39181;53.440;5.644;2023-01-28T12:55:17;6.00;99.90
53294;DHT22;39181;53.440;5.644;2023-01-28T12:57:46;5.90;99.90
53294;DHT22;39181;53.440;5.644;2023-01-28T13:00:28;5.90;99.90
53294;DHT22;39181;53.440;5.644;2023-01-28T13:03:07;5.90;99.90
53294;DHT22;39181;53.440;5.644;2023-01-28T13:05:38;5.90;99.90
53294;DHT22;39181;53.440;5.644;2023-01-28T13:08:25;6.00;99.90
53294;DHT22;39181;53.440;5.644;2023-01-28T13:10:52;6.00;99.90
53294;DHT22;39181;53.440;5.644;2023-01-28T13:13:35;6.00;99.90
53294;DHT22;39181;53.440;5.644;2023-01-28T13:16:01;6.00;99.90
53294;DHT22;39181;53.440;5.644;2023-01-28T13:21:12;6.00;99.90
53294;DHT22;39181;53.440;5.644;2023-01-28T13:23:47;6.10;99.90
53294;DHT22;39181;53.440;5.644;2023-01-28T13:28:46;6.20;99.90
53294;DHT22;39181;53.440;5.644;2023-01-28T13:31:15;6.30;99.90
53294;DHT22;39181;53.440;5.644;2023-01-28T13:33:59;6.40;99.90
53294;DHT22;39181;53.440;5.644;2023-01-28T13:36:32;6.60;99.90
53294;DHT22;39181;53.440;5.644;2023-01-28T13:39:01;6.40;99.90
53294;DHT22;39181;53.440;5.644;2023-01-28T13:42:10;6.40;99.90
53294;DHT22;39181;53.440;5.644;2023-01-28T13:44:44;6.40;99.90
53294;DHT22;39181;53.440;5.644;2023-01-28T13:49:45;6.40;99.90
53294;DHT22;39181;53.440;5.644;2023-01-28T13:52:15;6.40;99.90
53294;DHT22;39181;53.440;5.644;2023-01-28T13:54:50;6.30;99.90
53294;DHT22;39181;53.440;5.644;2023-01-28T14:09:02;6.40;99.90
53294;DHT22;39181;53.440;5.644;2023-01-28T14:19:57;6.30;99.90
53294;DHT22;39181;53.440;5.644;2023-01-28T14:22:25;6.30;99.90
53294;DHT22;39181;53.440;5.644;2023-01-28T14:24:51;6.40;99.90
53294;DHT22;39181;53.440;5.644;2023-01-28T14:30:07;6.40;99.90
53294;DHT22;39181;53.440;5.644;2023-01-28T14:32:47;6.40;99.90
53294;DHT22;39181;53.440;5.644;2023-01-28T14:35:28;6.30;99.90
53294;DHT22;39181;53.440;5.644;2023-01-28T14:37:56;6.30;99.90
53294;DHT22;39181;53.440;5.644;2023-01-28T14:40:23;6.20;99.90
53294;DHT22;39181;53.440;5.644;2023-01-28T14:42:52;6.20;99.90
53294;DHT22;39181;53.440;5.644;2023-01-28T14:52:13;6.20;99.90
53294;DHT22;39181;53.440;5.644;2023-01-28T15:00:13;6.10;99.90
53294;DHT22;39181;53.440;5.644;2023-01-28T15:02:20;6.10;99.90
53294;DHT22;39181;53.440;5.644;2023-01-28T15:04:47;6.10;99.90
53294;DHT22;39181;53.440;5.644;2023-01-28T15:07:18;6.10;99.90
53294;DHT22;39181;53.440;5.644;2023-01-28T15:09:45;6.10;99.90
53294;DHT22;39181;53.440;5.644;2023-01-28T15:12:12;6.00;99.90
53294;DHT22;39181;53.440;5.644;2023-01-28T15:14:38;6.00;99.90
53294;DHT22;39181;53.440;5.644;2023-01-28T15:17:05;6.00;99.90
53294;DHT22;39181;53.440;5.644;2023-01-28T15:19:35;5.90;99.90
53294;DHT22;39181;53.440;5.644;2023-01-28T15:22:06;5.90;99.90
53294;DHT22;39181;53.440;5.644;2023-01-28T15:24:35;5.90;99.90
53294;DHT22;39181;53.440;5.644;2023-01-28T15:27:01;5.80;99.90
53294;DHT22;39181;53.440;5.644;2023-01-28T15:29:35;5.80;99.90
53294;DHT22;39181;53.440;5.644;2023-01-28T15:32:03;5.80;99.90
53294;DHT22;39181;53.440;5.644;2023-01-28T15:34:29;5.80;99.90
53294;DHT22;39181;53.440;5.644;2023-01-28T15:36:59;5.70;99.90
53294;DHT22;39181;53.440;5.644;2023-01-28T15:39:26;5.70;99.90
53294;DHT22;39181;53.440;5.644;2023-01-28T15:44:43;5.70;99.90
53294;DHT22;39181;53.440;5.644;2023-01-28T15:47:32;5.70;99.90
53294;DHT22;39181;53.440;5.644;2023-01-28T15:50:03;5.70;99.90
53294;DHT22;39181;53.440;5.644;2023-01-28T15:52:32;5.60;99.90
53294;DHT22;39181;53.440;5.644;2023-01-28T15:54:59;5.60;99.90
53294;DHT22;39181;53.440;5.644;2023-01-28T15:57:28;5.60;99.90
53294;DHT22;39181;53.440;5.644;2023-01-28T16:00:14;5.50;99.90
53294;DHT22;39181;53.440;5.644;2023-01-28T16:02:45;5.50;99.90
53294;DHT22;39181;53.440;5.644;2023-01-28T16:05:38;5.50;99.90
53294;DHT22;39181;53.440;5.644;2023-01-28T16:08:10;5.40;99.90
53294;DHT22;39181;53.440;5.644;2023-01-28T16:10:37;5.40;99.90
53294;DHT22;39181;53.440;5.644;2023-01-28T16:13:23;5.30;99.90
53294;DHT22;39181;53.440;5.644;2023-01-28T16:15:51;5.30;99.90
53294;DHT22;39181;53.440;5.644;2023-01-28T16:18:52;5.30;99.90
53294;DHT22;39181;53.440;5.644;2023-01-28T16:21:25;5.30;99.90
53294;DHT22;39181;53.440;5.644;2023-01-28T16:24:06;5.20;99.90
53294;DHT22;39181;53.440;5.644;2023-01-28T16:27:04;5.30;99.90
53294;DHT22;39181;53.440;5.644;2023-01-28T16:29:32;5.20;99.90
53294;DHT22;39181;53.440;5.644;2023-01-28T16:31:58;5.20;99.90
53294;DHT22;39181;53.440;5.644;2023-01-28T16:34:24;5.10;99.90
53294;DHT22;39181;53.440;5.644;2023-01-28T16:36:52;5.10;99.90
53294;DHT22;39181;53.440;5.644;2023-01-28T16:39:17;5.10;99.90
53294;DHT22;39181;53.440;5.644;2023-01-28T16:41:45;5.10;99.90
53294;DHT22;39181;53.440;5.644;2023-01-28T16:44:15;5.10;99.90
53294;DHT22;39181;53.440;5.644;2023-01-28T16:46:41;5.10;99.90
53294;DHT22;39181;53.440;5.644;2023-01-28T16:49:08;5.10;99.90
53294;DHT22;39181;53.440;5.644;2023-01-28T16:51:35;5.10;99.90
53294;DHT22;39181;53.440;5.644;2023-01-28T16:54:01;5.00;99.90
53294;DHT22;39181;53.440;5.644;2023-01-28T16:56:28;5.10;99.90
53294;DHT22;39181;53.440;5.644;2023-01-28T16:58:54;5.10;99.90
53294;DHT22;39181;53.440;5.644;2023-01-28T17:01:20;5.10;99.90
53294;DHT22;39181;53.440;5.644;2023-01-28T17:03:45;5.00;99.90
53294;DHT22;39181;53.440;5.644;2023-01-28T17:06:16;5.00;99.90
53294;DHT22;39181;53.440;5.644;2023-01-28T17:08:42;5.10;99.90
53294;DHT22;39181;53.440;5.644;2023-01-28T17:11:07;5.10;99.90
53294;DHT22;39181;53.440;5.644;2023-01-28T17:13:33;5.00;99.90
53294;DHT22;39181;53.440;5.644;2023-01-28T17:16:03;5.00;99.90
53294;DHT22;39181;53.440;5.644;2023-01-28T17:18:29;5.00;99.90
53294;DHT22;39181;53.440;5.644;2023-01-28T17:21:03;5.00;99.90
53294;DHT22;39181;53.440;5.644;2023-01-28T17:23:30;5.00;99.90
53294;DHT22;39181;53.440;5.644;2023-01-28T17:25:55;5.00;99.90
53294;DHT22;39181;53.440;5.644;2023-01-28T17:28:21;5.00;99.90
53294;DHT22;39181;53.440;5.644;2023-01-28T17:30:47;5.00;99.90
53294;DHT22;39181;53.440;5.644;2023-01-28T17:33:12;5.00;99.90
53294;DHT22;39181;53.440;5.644;2023-01-28T17:35:38;5.00;99.90
53294;DHT22;39181;53.440;5.644;2023-01-28T17:38:04;5.00;99.90
53294;DHT22;39181;53.440;5.644;2023-01-28T17:40:31;5.00;99.90
53294;DHT22;39181;53.440;5.644;2023-01-28T17:42:57;5.00;99.90
53294;DHT22;39181;53.440;5.644;2023-01-28T17:45:22;5.00;99.90